sensor_id;sensor_type;location;lat;lon;timestamp;pressure;altitude;pressure_sealevel;temperature
48894;BMP280;34710;35.798;139.446;2023-05-14T00:00:46;100850.58;;;17.92
48894;BMP280;34710;35.798;139.446;2023-05-14T00:03:11;100844.99;;;18.12
48894;BMP280;34710;35.798;139.446;2023-05-14T00:05:37;100841.29;;;16.67
48894;BMP280;34710;35.798;139.446;2023-05-14T00:08:02;100840.52;;;17.86
48894;BMP280;34710;35.798;139.446;2023-05-14T00:10:28;100835.47;;;17.95
48894;BMP280;34710;35.798;139.446;2023-05-14T00:12:52;100838.48;;;18.08
48894;BMP280;34710;35.798;139.446;2023-05-14T00:15:18;100837.54;;;18.59
48894;BMP280;34710;35.798;139.446;2023-05-14T00:17:43;100835.75;;;18.36
48894;BMP280;34710;35.798;139.446;2023-05-14T00:20:10;100832.86;;;17.35
48894;BMP280;34710;35.798;139.446;2023-05-14T00:22:35;100831.33;;;16.74
48894;BMP280;34710;35.798;139.446;2023-05-14T00:25:00;100835.51;;;17.21
48894;BMP280;34710;35.798;139.446;2023-05-14T00:27:25;100834.91;;;17.72
48894;BMP280;34710;35.798;139.446;2023-05-14T00:29:50;100841.72;;;17.70
48894;BMP280;34710;35.798;139.446;2023-05-14T00:32:15;100841.09;;;16.93
48894;BMP280;34710;35.798;139.446;2023-05-14T00:34:40;100839.78;;;17.56
48894;BMP280;34710;35.798;139.446;2023-05-14T00:37:06;100829.14;;;17.91
48894;BMP280;34710;35.798;139.446;2023-05-14T00:39:31;100824.42;;;17.65
48894;BMP280;34710;35.798;139.446;2023-05-14T00:41:56;100828.52;;;17.91
48894;BMP280;34710;35.798;139.446;2023-05-14T00:44:21;100836.84;;;17.63
48894;BMP280;34710;35.798;139.446;2023-05-14T00:46:46;100831.21;;;18.53
48894;BMP280;34710;35.798;139.446;2023-05-14T00:49:11;100841.48;;;18.91
48894;BMP280;34710;35.798;139.446;2023-05-14T00:51:36;100841.53;;;18.05
48894;BMP280;34710;35.798;139.446;2023-05-14T00:54:02;100844.67;;;17.82
48894;BMP280;34710;35.798;139.446;2023-05-14T00:56:28;100840.33;;;17.74
48894;BMP280;34710;35.798;139.446;2023-05-14T00:58:52;100844.49;;;17.91
48894;BMP280;34710;35.798;139.446;2023-05-14T01:01:18;100836.39;;;17.59
48894;BMP280;34710;35.798;139.446;2023-05-14T01:03:42;100832.36;;;17.71
48894;BMP280;34710;35.798;139.446;2023-05-14T01:06:14;100828.41;;;18.13
48894;BMP280;34710;35.798;139.446;2023-05-14T01:08:39;100823.43;;;18.26
48894;BMP280;34710;35.798;139.446;2023-05-14T01:11:04;100823.24;;;18.80
48894;BMP280;34710;35.798;139.446;2023-05-14T01:13:30;100820.51;;;18.85
48894;BMP280;34710;35.798;139.446;2023-05-14T01:15:49;100821.70;;;18.67
48894;BMP280;34710;35.798;139.446;2023-05-14T01:18:17;100818.17;;;18.83
48894;BMP280;34710;35.798;139.446;2023-05-14T01:20:40;100819.22;;;18.71
48894;BMP280;34710;35.798;139.446;2023-05-14T01:23:05;100816.82;;;17.97
48894;BMP280;34710;35.798;139.446;2023-05-14T01:25:30;100818.61;;;18.33
48894;BMP280;34710;35.798;139.446;2023-05-14T01:28:01;100826.09;;;17.53
48894;BMP280;34710;35.798;139.446;2023-05-14T01:30:25;100817.00;;;18.05
48894;BMP280;34710;35.798;139.446;2023-05-14T01:32:49;100819.90;;;17.65
48894;BMP280;34710;35.798;139.446;2023-05-14T01:35:10;100813.93;;;18.73
48894;BMP280;34710;35.798;139.446;2023-05-14T01:37:37;100812.59;;;19.09
48894;BMP280;34710;35.798;139.446;2023-05-14T01:40:01;100803.88;;;18.61
48894;BMP280;34710;35.798;139.446;2023-05-14T01:42:27;100793.10;;;18.56
48894;BMP280;34710;35.798;139.446;2023-05-14T01:44:52;100795.65;;;18.45
48894;BMP280;34710;35.798;139.446;2023-05-14T01:47:17;100787.90;;;18.48
48894;BMP280;34710;35.798;139.446;2023-05-14T01:49:42;100782.20;;;17.64
48894;BMP280;34710;35.798;139.446;2023-05-14T01:52:08;100784.57;;;18.10
48894;BMP280;34710;35.798;139.446;2023-05-14T01:54:32;100780.89;;;17.58
48894;BMP280;34710;35.798;139.446;2023-05-14T01:56:58;100770.77;;;18.55
48894;BMP280;34710;35.798;139.446;2023-05-14T01:59:22;100762.86;;;17.36
48894;BMP280;34710;35.798;139.446;2023-05-14T02:01:48;100762.50;;;17.51
48894;BMP280;34710;35.798;139.446;2023-05-14T02:04:13;100764.13;;;17.33
48894;BMP280;34710;35.798;139.446;2023-05-14T02:06:39;100766.63;;;16.72
48894;BMP280;34710;35.798;139.446;2023-05-14T02:09:05;100771.73;;;16.49
48894;BMP280;34710;35.798;139.446;2023-05-14T02:11:29;100771.76;;;16.39
48894;BMP280;34710;35.798;139.446;2023-05-14T02:13:54;100768.80;;;16.96
48894;BMP280;34710;35.798;139.446;2023-05-14T02:16:19;100769.84;;;16.46
48894;BMP280;34710;35.798;139.446;2023-05-14T02:18:45;100778.74;;;16.23
48894;BMP280;34710;35.798;139.446;2023-05-14T02:21:10;100776.92;;;16.31
48894;BMP280;34710;35.798;139.446;2023-05-14T02:23:35;100778.18;;;15.95
48894;BMP280;34710;35.798;139.446;2023-05-14T02:26:00;100786.51;;;16.17
48894;BMP280;34710;35.798;139.446;2023-05-14T02:28:25;100774.09;;;15.79
48894;BMP280;34710;35.798;139.446;2023-05-14T02:30:50;100764.04;;;15.93
48894;BMP280;34710;35.798;139.446;2023-05-14T02:33:16;100751.51;;;16.14
48894;BMP280;34710;35.798;139.446;2023-05-14T02:35:41;100756.31;;;16.97
48894;BMP280;34710;35.798;139.446;2023-05-14T02:38:06;100757.18;;;17.85
48894;BMP280;34710;35.798;139.446;2023-05-14T02:40:31;100750.09;;;17.22
48894;BMP280;34710;35.798;139.446;2023-05-14T02:42:56;100738.64;;;17.71
48894;BMP280;34710;35.798;139.446;2023-05-14T02:45:22;100735.83;;;18.51
48894;BMP280;34710;35.798;139.446;2023-05-14T02:47:47;100737.27;;;18.05
48894;BMP280;34710;35.798;139.446;2023-05-14T02:50:12;100739.88;;;18.09
48894;BMP280;34710;35.798;139.446;2023-05-14T02:52:37;100736.42;;;18.52
48894;BMP280;34710;35.798;139.446;2023-05-14T02:55:03;100730.31;;;17.50
48894;BMP280;34710;35.798;139.446;2023-05-14T02:57:28;100722.86;;;17.90
48894;BMP280;34710;35.798;139.446;2023-05-14T02:59:53;100720.36;;;18.11
48894;BMP280;34710;35.798;139.446;2023-05-14T03:02:19;100713.99;;;17.74
48894;BMP280;34710;35.798;139.446;2023-05-14T03:04:44;100709.78;;;18.42
48894;BMP280;34710;35.798;139.446;2023-05-14T03:07:10;100707.09;;;19.15
48894;BMP280;34710;35.798;139.446;2023-05-14T03:09:34;100707.12;;;18.92
48894;BMP280;34710;35.798;139.446;2023-05-14T03:12:00;100699.49;;;18.24
48894;BMP280;34710;35.798;139.446;2023-05-14T03:14:25;100698.80;;;17.67
48894;BMP280;34710;35.798;139.446;2023-05-14T03:16:51;100694.82;;;18.59
48894;BMP280;34710;35.798;139.446;2023-05-14T03:19:16;100693.10;;;18.15
48894;BMP280;34710;35.798;139.446;2023-05-14T03:21:41;100685.89;;;18.77
48894;BMP280;34710;35.798;139.446;2023-05-14T03:24:07;100674.94;;;19.97
48894;BMP280;34710;35.798;139.446;2023-05-14T03:26:32;100667.14;;;20.34
48894;BMP280;34710;35.798;139.446;2023-05-14T03:28:56;100667.99;;;19.86
48894;BMP280;34710;35.798;139.446;2023-05-14T03:31:22;100683.99;;;18.63
48894;BMP280;34710;35.798;139.446;2023-05-14T03:33:47;100679.93;;;18.83
48894;BMP280;34710;35.798;139.446;2023-05-14T03:36:13;100670.90;;;19.03
48894;BMP280;34710;35.798;139.446;2023-05-14T03:38:39;100665.18;;;18.08
48894;BMP280;34710;35.798;139.446;2023-05-14T03:41:03;100663.51;;;18.80
48894;BMP280;34710;35.798;139.446;2023-05-14T03:43:29;100661.31;;;19.21
48894;BMP280;34710;35.798;139.446;2023-05-14T03:45:54;100664.36;;;18.98
48894;BMP280;34710;35.798;139.446;2023-05-14T03:48:19;100658.65;;;17.93
48894;BMP280;34710;35.798;139.446;2023-05-14T03:50:45;100654.05;;;18.31
48894;BMP280;34710;35.798;139.446;2023-05-14T03:53:10;100659.93;;;18.07
48894;BMP280;34710;35.798;139.446;2023-05-14T03:55:34;100656.82;;;17.50
48894;BMP280;34710;35.798;139.446;2023-05-14T03:58:00;100656.39;;;17.90
48894;BMP280;34710;35.798;139.446;2023-05-14T04:00:25;100652.30;;;18.50
48894;BMP280;34710;35.798;139.446;2023-05-14T04:02:51;100650.32;;;19.09
48894;BMP280;34710;35.798;139.446;2023-05-14T04:05:16;100636.72;;;19.67
48894;BMP280;34710;35.798;139.446;2023-05-14T04:07:41;100636.67;;;19.19
48894;BMP280;34710;35.798;139.446;2023-05-14T04:10:07;100624.92;;;19.40
48894;BMP280;34710;35.798;139.446;2023-05-14T04:12:31;100631.17;;;18.12
48894;BMP280;34710;35.798;139.446;2023-05-14T04:14:58;100624.34;;;18.22
48894;BMP280;34710;35.798;139.446;2023-05-14T04:17:22;100618.53;;;18.34
48894;BMP280;34710;35.798;139.446;2023-05-14T04:19:47;100622.79;;;17.60
48894;BMP280;34710;35.798;139.446;2023-05-14T04:22:12;100623.79;;;18.25
48894;BMP280;34710;35.798;139.446;2023-05-14T04:24:38;100622.29;;;17.88
48894;BMP280;34710;35.798;139.446;2023-05-14T04:27:03;100619.99;;;18.41
48894;BMP280;34710;35.798;139.446;2023-05-14T04:29:28;100612.12;;;18.96
48894;BMP280;34710;35.798;139.446;2023-05-14T04:31:54;100605.11;;;18.69
48894;BMP280;34710;35.798;139.446;2023-05-14T04:34:19;100594.52;;;17.63
48894;BMP280;34710;35.798;139.446;2023-05-14T04:36:44;100592.44;;;17.83
48894;BMP280;34710;35.798;139.446;2023-05-14T04:39:09;100588.30;;;17.16
48894;BMP280;34710;35.798;139.446;2023-05-14T04:41:34;100583.70;;;17.78
48894;BMP280;34710;35.798;139.446;2023-05-14T04:44:01;100584.23;;;18.03
48894;BMP280;34710;35.798;139.446;2023-05-14T04:46:25;100582.57;;;18.51
48894;BMP280;34710;35.798;139.446;2023-05-14T04:48:50;100574.20;;;18.11
48894;BMP280;34710;35.798;139.446;2023-05-14T04:51:15;100574.82;;;18.79
48894;BMP280;34710;35.798;139.446;2023-05-14T04:53:40;100565.30;;;19.50
48894;BMP280;34710;35.798;139.446;2023-05-14T04:56:06;100564.13;;;18.56
48894;BMP280;34710;35.798;139.446;2023-05-14T04:58:31;100553.45;;;18.79
48894;BMP280;34710;35.798;139.446;2023-05-14T05:00:56;100555.17;;;19.05
48894;BMP280;34710;35.798;139.446;2023-05-14T05:03:22;100558.02;;;18.06
48894;BMP280;34710;35.798;139.446;2023-05-14T05:05:46;100553.21;;;18.55
48894;BMP280;34710;35.798;139.446;2023-05-14T05:08:11;100550.54;;;19.08
48894;BMP280;34710;35.798;139.446;2023-05-14T05:10:38;100540.27;;;18.32
48894;BMP280;34710;35.798;139.446;2023-05-14T05:13:03;100528.97;;;19.64
48894;BMP280;34710;35.798;139.446;2023-05-14T05:15:28;100532.07;;;18.52
48894;BMP280;34710;35.798;139.446;2023-05-14T05:17:53;100529.90;;;18.70
48894;BMP280;34710;35.798;139.446;2023-05-14T05:20:18;100532.57;;;18.60
48894;BMP280;34710;35.798;139.446;2023-05-14T05:22:43;100530.13;;;18.84
48894;BMP280;34710;35.798;139.446;2023-05-14T05:25:09;100531.18;;;18.54
48894;BMP280;34710;35.798;139.446;2023-05-14T05:27:34;100523.64;;;18.71
48894;BMP280;34710;35.798;139.446;2023-05-14T05:29:59;100517.76;;;19.04
48894;BMP280;34710;35.798;139.446;2023-05-14T05:32:24;100521.53;;;18.66
48894;BMP280;34710;35.798;139.446;2023-05-14T05:34:49;100512.82;;;19.45
48894;BMP280;34710;35.798;139.446;2023-05-14T05:37:15;100523.64;;;18.20
48894;BMP280;34710;35.798;139.446;2023-05-14T05:39:40;100520.21;;;18.22
48894;BMP280;34710;35.798;139.446;2023-05-14T05:42:06;100514.54;;;18.29
48894;BMP280;34710;35.798;139.446;2023-05-14T05:44:31;100510.86;;;18.27
48894;BMP280;34710;35.798;139.446;2023-05-14T05:46:56;100507.30;;;18.66
48894;BMP280;34710;35.798;139.446;2023-05-14T05:49:21;100506.66;;;18.52
48894;BMP280;34710;35.798;139.446;2023-05-14T05:51:46;100503.64;;;19.07
48894;BMP280;34710;35.798;139.446;2023-05-14T05:54:11;100500.25;;;18.72
48894;BMP280;34710;35.798;139.446;2023-05-14T05:56:36;100512.30;;;18.37
48894;BMP280;34710;35.798;139.446;2023-05-14T05:59:01;100504.55;;;18.02
48894;BMP280;34710;35.798;139.446;2023-05-14T06:01:26;100501.34;;;18.62
48894;BMP280;34710;35.798;139.446;2023-05-14T06:03:52;100504.95;;;18.85
48894;BMP280;34710;35.798;139.446;2023-05-14T06:06:17;100502.39;;;19.23
48894;BMP280;34710;35.798;139.446;2023-05-14T06:08:42;100503.70;;;19.60
48894;BMP280;34710;35.798;139.446;2023-05-14T06:11:07;100500.07;;;19.61
48894;BMP280;34710;35.798;139.446;2023-05-14T06:13:33;100500.01;;;19.84
48894;BMP280;34710;35.798;139.446;2023-05-14T06:15:58;100504.99;;;18.79
48894;BMP280;34710;35.798;139.446;2023-05-14T06:18:24;100505.05;;;18.57
48894;BMP280;34710;35.798;139.446;2023-05-14T06:20:50;100497.06;;;18.96
48894;BMP280;34710;35.798;139.446;2023-05-14T06:23:15;100494.18;;;19.54
48894;BMP280;34710;35.798;139.446;2023-05-14T06:25:40;100495.55;;;18.32
48894;BMP280;34710;35.798;139.446;2023-05-14T06:28:06;100504.41;;;18.39
48894;BMP280;34710;35.798;139.446;2023-05-14T06:30:31;100508.23;;;18.26
48894;BMP280;34710;35.798;139.446;2023-05-14T06:32:56;100521.74;;;18.85
48894;BMP280;34710;35.798;139.446;2023-05-14T06:35:22;100525.18;;;17.19
48894;BMP280;34710;35.798;139.446;2023-05-14T06:37:47;100529.22;;;16.65
48894;BMP280;34710;35.798;139.446;2023-05-14T06:40:13;100527.70;;;15.53
48894;BMP280;34710;35.798;139.446;2023-05-14T06:42:37;100532.04;;;16.10
48894;BMP280;34710;35.798;139.446;2023-05-14T06:45:03;100531.97;;;15.44
48894;BMP280;34710;35.798;139.446;2023-05-14T06:47:27;100530.25;;;16.18
48894;BMP280;34710;35.798;139.446;2023-05-14T06:49:52;100529.09;;;16.35
48894;BMP280;34710;35.798;139.446;2023-05-14T06:52:19;100534.56;;;16.10
48894;BMP280;34710;35.798;139.446;2023-05-14T06:54:44;100543.51;;;15.21
48894;BMP280;34710;35.798;139.446;2023-05-14T06:57:10;100545.50;;;14.81
48894;BMP280;34710;35.798;139.446;2023-05-14T06:59:35;100556.06;;;15.20
48894;BMP280;34710;35.798;139.446;2023-05-14T07:02:00;100555.20;;;14.28
48894;BMP280;34710;35.798;139.446;2023-05-14T07:04:25;100554.31;;;15.14
48894;BMP280;34710;35.798;139.446;2023-05-14T07:06:51;100551.70;;;15.08
48894;BMP280;34710;35.798;139.446;2023-05-14T07:09:16;100553.62;;;16.33
48894;BMP280;34710;35.798;139.446;2023-05-14T07:11:41;100559.12;;;16.02
48894;BMP280;34710;35.798;139.446;2023-05-14T07:14:06;100563.42;;;15.41
48894;BMP280;34710;35.798;139.446;2023-05-14T07:16:32;100565.37;;;15.83
48894;BMP280;34710;35.798;139.446;2023-05-14T07:18:57;100561.95;;;15.32
48894;BMP280;34710;35.798;139.446;2023-05-14T07:21:22;100559.20;;;15.35
48894;BMP280;34710;35.798;139.446;2023-05-14T07:23:48;100559.66;;;15.36
48894;BMP280;34710;35.798;139.446;2023-05-14T07:26:13;100550.97;;;15.40
48894;BMP280;34710;35.798;139.446;2023-05-14T07:28:38;100547.75;;;15.48
48894;BMP280;34710;35.798;139.446;2023-05-14T07:31:04;100547.01;;;16.27
48894;BMP280;34710;35.798;139.446;2023-05-14T07:33:30;100551.83;;;16.22
48894;BMP280;34710;35.798;139.446;2023-05-14T07:35:55;100554.22;;;16.03
48894;BMP280;34710;35.798;139.446;2023-05-14T07:38:20;100556.56;;;14.03
48894;BMP280;34710;35.798;139.446;2023-05-14T07:40:45;100553.65;;;14.89
48894;BMP280;34710;35.798;139.446;2023-05-14T07:43:10;100557.41;;;14.48
48894;BMP280;34710;35.798;139.446;2023-05-14T07:45:36;100555.86;;;14.64
48894;BMP280;34710;35.798;139.446;2023-05-14T07:48:02;100553.30;;;14.73
48894;BMP280;34710;35.798;139.446;2023-05-14T07:50:26;100562.85;;;14.34
48894;BMP280;34710;35.798;139.446;2023-05-14T07:52:51;100575.49;;;13.27
48894;BMP280;34710;35.798;139.446;2023-05-14T07:55:17;100565.84;;;13.76
48894;BMP280;34710;35.798;139.446;2023-05-14T07:57:42;100571.28;;;13.24
48894;BMP280;34710;35.798;139.446;2023-05-14T08:00:08;100568.73;;;13.36
48894;BMP280;34710;35.798;139.446;2023-05-14T08:02:33;100567.90;;;14.26
48894;BMP280;34710;35.798;139.446;2023-05-14T08:04:58;100573.28;;;14.34
48894;BMP280;34710;35.798;139.446;2023-05-14T08:07:24;100572.27;;;14.97
48894;BMP280;34710;35.798;139.446;2023-05-14T08:09:49;100574.15;;;14.13
48894;BMP280;34710;35.798;139.446;2023-05-14T08:12:14;100575.92;;;13.96
48894;BMP280;34710;35.798;139.446;2023-05-14T08:14:40;100572.22;;;13.95
48894;BMP280;34710;35.798;139.446;2023-05-14T08:17:05;100568.51;;;13.39
48894;BMP280;34710;35.798;139.446;2023-05-14T08:19:31;100567.70;;;14.09
48894;BMP280;34710;35.798;139.446;2023-05-14T08:21:55;100571.31;;;14.05
48894;BMP280;34710;35.798;139.446;2023-05-14T08:24:22;100568.20;;;14.13
48894;BMP280;34710;35.798;139.446;2023-05-14T08:26:47;100569.67;;;13.57
48894;BMP280;34710;35.798;139.446;2023-05-14T08:29:13;100575.15;;;13.30
48894;BMP280;34710;35.798;139.446;2023-05-14T08:31:39;100570.68;;;13.39
48894;BMP280;34710;35.798;139.446;2023-05-14T08:34:04;100577.43;;;13.49
48894;BMP280;34710;35.798;139.446;2023-05-14T08:36:29;100579.67;;;13.56
48894;BMP280;34710;35.798;139.446;2023-05-14T08:38:54;100586.87;;;13.11
48894;BMP280;34710;35.798;139.446;2023-05-14T08:41:20;100587.26;;;13.59
48894;BMP280;34710;35.798;139.446;2023-05-14T08:43:49;100583.68;;;13.05
48894;BMP280;34710;35.798;139.446;2023-05-14T08:46:13;100578.36;;;12.88
48894;BMP280;34710;35.798;139.446;2023-05-14T08:48:35;100578.55;;;12.63
48894;BMP280;34710;35.798;139.446;2023-05-14T08:51:01;100577.70;;;13.21
48894;BMP280;34710;35.798;139.446;2023-05-14T08:53:25;100581.73;;;13.21
48894;BMP280;34710;35.798;139.446;2023-05-14T08:55:51;100578.56;;;13.00
48894;BMP280;34710;35.798;139.446;2023-05-14T08:58:16;100585.19;;;12.88
48894;BMP280;34710;35.798;139.446;2023-05-14T09:00:41;100584.67;;;12.56
48894;BMP280;34710;35.798;139.446;2023-05-14T09:03:06;100581.60;;;12.98
48894;BMP280;34710;35.798;139.446;2023-05-14T09:05:31;100584.14;;;12.23
48894;BMP280;34710;35.798;139.446;2023-05-14T09:07:57;100580.72;;;12.53
48894;BMP280;34710;35.798;139.446;2023-05-14T09:10:22;100578.94;;;11.78
48894;BMP280;34710;35.798;139.446;2023-05-14T09:12:48;100583.01;;;12.93
48894;BMP280;34710;35.798;139.446;2023-05-14T09:15:13;100580.56;;;12.99
48894;BMP280;34710;35.798;139.446;2023-05-14T09:17:38;100577.30;;;12.57
48894;BMP280;34710;35.798;139.446;2023-05-14T09:20:04;100574.98;;;13.03
48894;BMP280;34710;35.798;139.446;2023-05-14T09:22:30;100577.56;;;12.72
48894;BMP280;34710;35.798;139.446;2023-05-14T09:25:02;100580.21;;;13.14
48894;BMP280;34710;35.798;139.446;2023-05-14T09:27:19;100583.45;;;12.68
48894;BMP280;34710;35.798;139.446;2023-05-14T09:29:44;100585.69;;;12.58
48894;BMP280;34710;35.798;139.446;2023-05-14T09:32:10;100581.83;;;12.24
48894;BMP280;34710;35.798;139.446;2023-05-14T09:34:35;100576.03;;;13.22
48894;BMP280;34710;35.798;139.446;2023-05-14T09:37:02;100577.55;;;12.78
48894;BMP280;34710;35.798;139.446;2023-05-14T09:39:26;100580.06;;;12.28
48894;BMP280;34710;35.798;139.446;2023-05-14T09:41:51;100583.20;;;12.32
48894;BMP280;34710;35.798;139.446;2023-05-14T09:44:16;100578.19;;;12.48
48894;BMP280;34710;35.798;139.446;2023-05-14T09:46:41;100574.13;;;13.05
48894;BMP280;34710;35.798;139.446;2023-05-14T09:49:06;100570.11;;;13.68
48894;BMP280;34710;35.798;139.446;2023-05-14T09:51:32;100570.15;;;12.69
48894;BMP280;34710;35.798;139.446;2023-05-14T09:53:57;100571.19;;;13.13
48894;BMP280;34710;35.798;139.446;2023-05-14T09:56:22;100573.62;;;13.22
48894;BMP280;34710;35.798;139.446;2023-05-14T09:58:48;100572.77;;;13.15
48894;BMP280;34710;35.798;139.446;2023-05-14T10:01:15;100567.26;;;13.71
48894;BMP280;34710;35.798;139.446;2023-05-14T10:03:39;100569.94;;;12.87
48894;BMP280;34710;35.798;139.446;2023-05-14T10:06:05;100566.90;;;13.25
48894;BMP280;34710;35.798;139.446;2023-05-14T10:08:34;100573.30;;;12.38
48894;BMP280;34710;35.798;139.446;2023-05-14T10:10:56;100571.23;;;12.32
48894;BMP280;34710;35.798;139.446;2023-05-14T10:13:22;100568.55;;;13.47
48894;BMP280;34710;35.798;139.446;2023-05-14T10:15:50;100567.79;;;13.13
48894;BMP280;34710;35.798;139.446;2023-05-14T10:18:15;100569.92;;;13.09
48894;BMP280;34710;35.798;139.446;2023-05-14T10:20:39;100570.92;;;13.86
48894;BMP280;34710;35.798;139.446;2023-05-14T10:23:02;100570.28;;;12.55
48894;BMP280;34710;35.798;139.446;2023-05-14T10:25:28;100574.19;;;12.65
48894;BMP280;34710;35.798;139.446;2023-05-14T10:27:53;100571.03;;;12.63
48894;BMP280;34710;35.798;139.446;2023-05-14T10:30:21;100573.97;;;12.43
48894;BMP280;34710;35.798;139.446;2023-05-14T10:32:44;100570.93;;;12.72
48894;BMP280;34710;35.798;139.446;2023-05-14T10:35:19;100572.81;;;13.47
48894;BMP280;34710;35.798;139.446;2023-05-14T10:37:35;100575.19;;;13.16
48894;BMP280;34710;35.798;139.446;2023-05-14T10:40:03;100577.50;;;12.54
48894;BMP280;34710;35.798;139.446;2023-05-14T10:42:28;100574.71;;;12.93
48894;BMP280;34710;35.798;139.446;2023-05-14T10:44:54;100581.40;;;12.98
48894;BMP280;34710;35.798;139.446;2023-05-14T10:47:16;100577.19;;;12.63
48894;BMP280;34710;35.798;139.446;2023-05-14T10:49:42;100578.19;;;12.73
48894;BMP280;34710;35.798;139.446;2023-05-14T10:52:08;100580.17;;;12.97
48894;BMP280;34710;35.798;139.446;2023-05-14T10:54:36;100579.68;;;12.74
48894;BMP280;34710;35.798;139.446;2023-05-14T10:56:59;100582.95;;;12.65
48894;BMP280;34710;35.798;139.446;2023-05-14T10:59:27;100580.30;;;12.77
48894;BMP280;34710;35.798;139.446;2023-05-14T11:01:48;100570.39;;;12.53
48894;BMP280;34710;35.798;139.446;2023-05-14T11:04:17;100574.76;;;12.77
48894;BMP280;34710;35.798;139.446;2023-05-14T11:06:40;100571.20;;;11.93
48894;BMP280;34710;35.798;139.446;2023-05-14T11:09:05;100570.76;;;12.06
48894;BMP280;34710;35.798;139.446;2023-05-14T11:11:30;100566.39;;;11.54
48894;BMP280;34710;35.798;139.446;2023-05-14T11:13:56;100561.94;;;12.59
48894;BMP280;34710;35.798;139.446;2023-05-14T11:16:21;100568.24;;;11.97
48894;BMP280;34710;35.798;139.446;2023-05-14T11:18:46;100567.19;;;11.79
48894;BMP280;34710;35.798;139.446;2023-05-14T11:21:11;100571.50;;;12.36
48894;BMP280;34710;35.798;139.446;2023-05-14T11:23:37;100569.07;;;12.44
48894;BMP280;34710;35.798;139.446;2023-05-14T11:26:03;100570.03;;;12.88
48894;BMP280;34710;35.798;139.446;2023-05-14T11:28:28;100570.76;;;12.57
48894;BMP280;34710;35.798;139.446;2023-05-14T11:30:54;100569.74;;;12.76
48894;BMP280;34710;35.798;139.446;2023-05-14T11:33:20;100572.39;;;12.57
48894;BMP280;34710;35.798;139.446;2023-05-14T11:35:45;100571.14;;;13.23
48894;BMP280;34710;35.798;139.446;2023-05-14T11:38:15;100570.17;;;13.95
48894;BMP280;34710;35.798;139.446;2023-05-14T11:40:36;100572.52;;;13.52
48894;BMP280;34710;35.798;139.446;2023-05-14T11:43:01;100567.97;;;12.67
48894;BMP280;34710;35.798;139.446;2023-05-14T11:45:28;100574.11;;;12.75
48894;BMP280;34710;35.798;139.446;2023-05-14T11:47:53;100570.28;;;11.98
48894;BMP280;34710;35.798;139.446;2023-05-14T11:50:18;100569.79;;;11.89
48894;BMP280;34710;35.798;139.446;2023-05-14T11:52:44;100564.30;;;12.72
48894;BMP280;34710;35.798;139.446;2023-05-14T11:55:11;100564.65;;;12.31
48894;BMP280;34710;35.798;139.446;2023-05-14T11:57:35;100562.56;;;12.56
48894;BMP280;34710;35.798;139.446;2023-05-14T11:59:59;100559.06;;;11.97
48894;BMP280;34710;35.798;139.446;2023-05-14T12:02:27;100563.24;;;12.31
48894;BMP280;34710;35.798;139.446;2023-05-14T12:04:51;100562.84;;;12.94
48894;BMP280;34710;35.798;139.446;2023-05-14T12:07:15;100564.06;;;12.42
48894;BMP280;34710;35.798;139.446;2023-05-14T12:09:42;100554.31;;;13.31
48894;BMP280;34710;35.798;139.446;2023-05-14T12:12:11;100549.06;;;13.73
48894;BMP280;34710;35.798;139.446;2023-05-14T12:14:31;100550.44;;;13.16
48894;BMP280;34710;35.798;139.446;2023-05-14T12:16:57;100545.83;;;13.00
48894;BMP280;34710;35.798;139.446;2023-05-14T12:19:22;100539.29;;;13.18
48894;BMP280;34710;35.798;139.446;2023-05-14T12:21:48;100536.30;;;13.02
48894;BMP280;34710;35.798;139.446;2023-05-14T12:24:14;100536.68;;;13.62
48894;BMP280;34710;35.798;139.446;2023-05-14T12:26:37;100539.64;;;13.40
48894;BMP280;34710;35.798;139.446;2023-05-14T12:29:04;100540.03;;;13.45
48894;BMP280;34710;35.798;139.446;2023-05-14T12:31:30;100539.26;;;13.81
48894;BMP280;34710;35.798;139.446;2023-05-14T12:33:53;100539.26;;;14.39
48894;BMP280;34710;35.798;139.446;2023-05-14T12:36:19;100531.93;;;15.19
48894;BMP280;34710;35.798;139.446;2023-05-14T12:38:44;100533.30;;;14.32
48894;BMP280;34710;35.798;139.446;2023-05-14T12:41:10;100533.29;;;15.13
48894;BMP280;34710;35.798;139.446;2023-05-14T12:43:35;100532.84;;;14.78
48894;BMP280;34710;35.798;139.446;2023-05-14T12:46:00;100530.53;;;14.84
48894;BMP280;34710;35.798;139.446;2023-05-14T12:48:25;100534.57;;;14.36
48894;BMP280;34710;35.798;139.446;2023-05-14T12:50:50;100537.37;;;14.11
48894;BMP280;34710;35.798;139.446;2023-05-14T12:53:16;100532.96;;;14.36
48894;BMP280;34710;35.798;139.446;2023-05-14T12:55:41;100534.32;;;15.21
48894;BMP280;34710;35.798;139.446;2023-05-14T12:58:06;100533.23;;;14.32
48894;BMP280;34710;35.798;139.446;2023-05-14T13:00:32;100535.45;;;13.84
48894;BMP280;34710;35.798;139.446;2023-05-14T13:02:57;100533.63;;;14.94
48894;BMP280;34710;35.798;139.446;2023-05-14T13:05:22;100533.34;;;14.72
48894;BMP280;34710;35.798;139.446;2023-05-14T13:07:48;100531.05;;;14.71
48894;BMP280;34710;35.798;139.446;2023-05-14T13:10:13;100523.70;;;16.01
48894;BMP280;34710;35.798;139.446;2023-05-14T13:12:39;100524.83;;;16.33
48894;BMP280;34710;35.798;139.446;2023-05-14T13:15:05;100522.74;;;16.62
48894;BMP280;34710;35.798;139.446;2023-05-14T13:17:30;100516.73;;;16.87
48894;BMP280;34710;35.798;139.446;2023-05-14T13:19:54;100515.75;;;16.53